createdAt,value
2022-10-25T00:00:16.726Z,989.90
2022-10-25T00:01:16.774Z,989.91
2022-10-25T00:02:16.783Z,989.90
2022-10-25T00:03:16.491Z,989.85
2022-10-25T00:04:16.461Z,989.86
2022-10-25T00:05:16.334Z,989.83
2022-10-25T00:06:16.255Z,989.85
2022-10-25T00:07:16.176Z,989.82
2022-10-25T00:08:16.099Z,989.87
2022-10-25T00:09:16.019Z,989.87
2022-10-25T00:10:15.944Z,989.84
2022-10-25T00:11:15.867Z,989.85
2022-10-25T00:12:15.784Z,989.88
2022-10-25T00:13:15.705Z,989.74
2022-10-25T00:14:15.648Z,989.78
2022-10-25T00:15:15.548Z,989.76
2022-10-25T00:16:15.472Z,989.82
2022-10-25T00:17:15.394Z,989.78
2022-10-25T00:18:15.314Z,989.78
2022-10-25T00:19:15.235Z,989.79
2022-10-25T00:20:15.159Z,989.80
2022-10-25T00:21:15.081Z,989.80
2022-10-25T00:22:15.010Z,989.71
2022-10-25T00:23:14.924Z,989.76
2022-10-25T00:24:14.845Z,989.78
2022-10-25T00:25:14.965Z,989.78
2022-10-25T00:26:14.687Z,989.76
2022-10-25T00:27:14.608Z,989.78
2022-10-25T00:28:14.532Z,989.77
2022-10-25T00:29:14.528Z,989.80
2022-10-25T00:30:14.396Z,989.85
2022-10-25T00:31:14.296Z,989.85
2022-10-25T00:32:14.218Z,989.90
2022-10-25T00:33:14.140Z,989.91
2022-10-25T00:34:14.062Z,989.86
2022-10-25T00:35:13.983Z,989.85
2022-10-25T00:36:13.905Z,989.88
2022-10-25T00:37:13.826Z,989.89
2022-10-25T00:38:13.749Z,989.90
2022-10-25T00:39:13.671Z,989.90
2022-10-25T00:40:13.589Z,989.96
2022-10-25T00:41:13.514Z,989.90
2022-10-25T00:42:13.436Z,989.92
2022-10-25T00:43:13.353Z,989.89
2022-10-25T00:44:13.277Z,989.94
2022-10-25T00:45:13.199Z,989.91
2022-10-25T00:46:13.140Z,989.88
2022-10-25T00:47:13.040Z,989.88
2022-10-25T00:48:12.962Z,989.87
2022-10-25T00:49:12.885Z,989.86
2022-10-25T00:50:12.809Z,989.89
2022-10-25T00:51:12.727Z,989.93
2022-10-25T00:52:12.649Z,989.91
2022-10-25T00:53:12.572Z,989.90
2022-10-25T00:54:12.556Z,989.96
2022-10-25T00:55:12.412Z,989.97
2022-10-25T00:56:12.337Z,989.91
2022-10-25T00:57:12.257Z,989.91
2022-10-25T00:58:12.180Z,989.95
2022-10-25T00:59:12.100Z,989.95
2022-10-25T01:00:12.024Z,989.95
2022-10-25T01:01:11.988Z,989.91
2022-10-25T01:02:12.021Z,989.93
2022-10-25T01:03:11.789Z,989.91
2022-10-25T01:04:11.712Z,989.96
2022-10-25T01:05:11.630Z,989.94
2022-10-25T01:06:11.556Z,989.98
2022-10-25T01:07:11.476Z,990.00
2022-10-25T01:08:11.396Z,989.96
2022-10-25T01:09:11.319Z,990.01
2022-10-25T01:10:11.239Z,990.06
2022-10-25T01:11:11.238Z,990.10
2022-10-25T01:12:11.086Z,990.09
2022-10-25T01:13:11.004Z,990.07
2022-10-25T01:14:10.927Z,990.02
2022-10-25T01:15:10.849Z,990.02
2022-10-25T01:16:10.769Z,990.05
2022-10-25T01:17:10.698Z,989.97
2022-10-25T08:45:03.006Z,992.03
2022-10-25T08:46:02.910Z,992.13
2022-10-25T08:47:02.986Z,992.10
2022-10-25T08:48:02.755Z,992.10
2022-10-25T08:49:02.679Z,992.15
2022-10-25T08:50:02.600Z,992.18
2022-10-25T08:51:02.524Z,992.17
2022-10-25T08:52:02.448Z,992.19
2022-10-25T08:53:02.373Z,992.17
2022-10-25T08:54:02.297Z,992.19
2022-10-25T08:55:05.529Z,992.15
2022-10-25T08:56:17.852Z,992.18
2022-10-25T08:57:14.955Z,992.18
2022-10-25T08:58:01.986Z,992.19
2022-10-25T08:59:01.912Z,992.18
2022-10-25T09:00:01.834Z,992.18
2022-10-25T09:01:02.095Z,992.14
2022-10-25T09:02:01.807Z,992.18
2022-10-25T09:03:01.606Z,992.18
2022-10-25T09:04:01.529Z,992.16
2022-10-25T09:05:01.454Z,992.24
2022-10-25T09:06:01.375Z,992.25
2022-10-25T09:07:01.450Z,992.29
2022-10-25T09:08:01.221Z,992.23
2022-10-25T09:09:01.149Z,992.29
2022-10-25T09:10:01.070Z,992.29
2022-10-25T09:11:00.994Z,992.33
2022-10-25T09:12:00.919Z,992.34
2022-10-25T09:13:43.327Z,992.37
2022-10-25T10:18:04.515Z,992.68
2022-10-25T10:19:04.415Z,992.68
2022-10-25T10:20:04.495Z,992.65
2022-10-25T10:21:04.267Z,992.62
2022-10-25T10:22:04.193Z,992.58
2022-10-25T10:23:06.379Z,992.59
2022-10-25T10:24:04.041Z,992.55
2022-10-25T10:25:03.965Z,992.56
2022-10-25T10:26:03.889Z,992.49
2022-10-25T10:27:03.814Z,992.52
2022-10-25T10:28:03.740Z,992.54
2022-10-25T10:29:07.823Z,992.52
2022-10-25T10:30:03.584Z,992.53
2022-10-25T10:31:03.511Z,992.46
2022-10-25T10:32:03.436Z,992.54
2022-10-25T10:33:03.361Z,992.48
2022-10-25T10:34:03.305Z,992.54
2022-10-25T10:35:03.409Z,992.52
2022-10-25T10:36:03.132Z,992.49
2022-10-25T10:37:03.057Z,992.47
2022-10-25T10:38:02.990Z,992.47
2022-10-25T10:39:03.909Z,992.49
2022-10-25T10:40:02.842Z,992.47
2022-10-25T10:41:02.756Z,992.49
2022-10-25T10:42:02.680Z,992.43
2022-10-25T10:43:02.605Z,992.44
2022-10-25T10:44:02.533Z,992.42
2022-10-25T10:45:02.453Z,992.41
2022-10-25T10:46:02.376Z,992.42
2022-10-25T10:47:02.300Z,992.44
2022-10-25T10:48:02.228Z,992.40
2022-10-25T10:49:02.151Z,992.38
2022-10-25T10:50:02.096Z,992.45
2022-10-25T10:51:02.000Z,992.47
2022-10-25T10:52:01.927Z,992.46
2022-10-25T10:53:01.855Z,992.47
2022-10-25T10:54:01.778Z,992.47
2022-10-25T10:55:01.698Z,992.46
2022-10-25T10:56:01.625Z,992.48
2022-10-25T10:57:01.656Z,992.48
2022-10-25T10:58:01.475Z,992.51
2022-10-25T10:59:01.401Z,992.49
2022-10-25T12:08:29.869Z,992.97
2022-10-25T12:09:29.678Z,992.66
2022-10-25T12:10:29.606Z,992.82
2022-10-25T12:11:29.529Z,992.94
2022-10-25T12:12:29.459Z,992.71
2022-10-25T12:13:29.386Z,992.75
2022-10-25T12:14:29.313Z,992.73
2022-10-25T12:15:29.243Z,992.69
2022-10-25T12:16:29.172Z,992.81
2022-10-25T12:17:29.098Z,992.87
2022-10-25T12:18:29.028Z,992.62
2022-10-25T12:19:28.953Z,992.54
2022-10-25T12:20:28.956Z,992.61
2022-10-25T12:22:28.773Z,992.60
2022-10-25T12:31:20.780Z,992.56
2022-10-25T12:32:20.590Z,992.55
2022-10-25T12:33:20.521Z,992.48
2022-10-25T12:34:20.451Z,992.53
2022-10-25T12:35:20.380Z,992.52
2022-10-25T12:36:20.307Z,992.48
2022-10-25T12:37:20.238Z,992.47
2022-10-25T12:38:20.166Z,992.41
2022-10-25T12:39:20.096Z,992.41
2022-10-25T12:40:20.120Z,992.41
2022-10-25T12:41:20.055Z,992.40
2022-10-25T12:42:19.882Z,992.45
2022-10-25T12:43:19.809Z,992.40
2022-10-25T12:44:19.738Z,992.45
2022-10-25T15:33:19.484Z,991.74
2022-10-25T15:34:19.385Z,991.79
2022-10-25T15:35:19.308Z,991.75
2022-10-25T15:36:19.231Z,991.71
2022-10-25T15:37:19.154Z,991.70
2022-10-25T15:38:19.330Z,991.70
2022-10-25T15:39:19.001Z,991.69
2022-10-25T15:40:18.926Z,991.70
2022-10-25T15:41:18.867Z,991.69
2022-10-25T15:42:18.790Z,991.63
2022-10-25T15:43:18.699Z,991.62
2022-10-25T15:44:18.619Z,991.62
2022-10-25T15:45:18.544Z,991.62
2022-10-25T15:46:18.466Z,991.60
2022-10-25T15:47:18.391Z,991.58
2022-10-25T15:48:18.313Z,991.65
2022-10-25T15:49:18.307Z,991.59
2022-10-25T15:50:18.199Z,991.61
2022-10-25T15:51:18.593Z,991.59
2022-10-25T15:52:18.009Z,991.61
2022-10-25T15:53:18.376Z,991.59
2022-10-25T15:56:21.737Z,991.65
2022-10-25T15:57:17.624Z,991.63
2022-10-25T15:58:17.546Z,991.65
2022-10-25T15:59:17.552Z,991.65
2022-10-25T16:00:17.390Z,991.69
2022-10-25T16:01:17.489Z,991.66
2022-10-25T16:02:17.409Z,991.66
2022-10-25T16:03:17.164Z,991.66
2022-10-25T16:04:17.082Z,991.69
2022-10-25T16:05:17.028Z,991.69
2022-10-25T16:06:16.930Z,991.74
2022-10-25T16:07:16.852Z,991.65
2022-10-25T16:08:16.775Z,991.71
2022-10-25T16:09:16.709Z,991.69
2022-10-25T16:10:16.627Z,991.68
2022-10-25T16:11:16.545Z,991.68
2022-10-25T16:14:42.104Z,991.58
2022-10-25T16:15:42.028Z,991.60
2022-10-25T16:16:41.949Z,991.56
2022-10-25T16:17:41.870Z,991.57
2022-10-25T16:18:41.812Z,991.61
2022-10-25T16:19:41.716Z,991.61
2022-10-25T16:20:41.657Z,991.61
2022-10-25T16:21:41.559Z,991.62
2022-10-25T16:22:41.481Z,991.58
2022-10-25T16:23:41.404Z,991.63
2022-10-25T16:24:41.327Z,991.58
2022-10-25T16:25:41.246Z,991.59
2022-10-25T16:26:41.168Z,991.61
2022-10-25T16:27:41.091Z,991.62
2022-10-25T16:28:41.016Z,991.60
2022-10-25T16:29:40.934Z,991.61
2022-10-25T16:30:43.033Z,991.62
2022-10-25T16:31:40.776Z,991.58
2022-10-25T16:32:40.701Z,991.58
2022-10-25T16:33:40.619Z,991.56
2022-10-25T16:34:40.545Z,991.55
2022-10-25T16:35:40.466Z,991.56
2022-10-25T16:36:40.406Z,991.51
2022-10-25T16:37:40.311Z,991.58
2022-10-25T16:38:40.230Z,991.56
2022-10-25T16:39:40.158Z,991.57
2022-10-25T16:40:40.074Z,991.55
2022-10-25T16:41:40.196Z,991.57
2022-10-25T16:42:39.917Z,991.59
2022-10-25T16:43:39.837Z,991.58
2022-10-25T16:44:39.758Z,991.58
2022-10-25T16:45:39.679Z,991.59
2022-10-25T16:46:39.602Z,991.56
2022-10-25T16:47:39.522Z,991.53
2022-10-25T16:48:39.444Z,991.59
2022-10-25T16:49:39.366Z,991.56
2022-10-25T16:50:39.289Z,991.58
2022-10-25T16:51:39.208Z,991.62
2022-10-25T16:52:39.150Z,991.60
2022-10-25T16:53:39.050Z,991.62
2022-10-25T16:54:38.971Z,991.63
2022-10-25T16:55:38.891Z,991.63
2022-10-25T16:56:38.816Z,991.61
2022-10-25T16:57:38.792Z,991.60
2022-10-25T16:58:38.689Z,991.62
2022-10-25T16:59:38.579Z,991.59
2022-10-25T17:00:38.613Z,991.57
2022-10-25T17:01:41.216Z,991.59
2022-10-25T17:02:38.342Z,991.60
2022-10-25T17:03:38.301Z,991.55
2022-10-25T17:04:38.219Z,991.57
2022-10-25T17:05:38.122Z,991.56
2022-10-25T17:06:42.452Z,991.54
2022-10-25T17:07:38.065Z,991.53
2022-10-25T17:08:37.905Z,991.52
2022-10-25T17:09:37.802Z,991.54
2022-10-25T17:10:38.408Z,991.50
2022-10-25T17:11:37.649Z,991.49
2022-10-25T17:12:37.559Z,991.45
2022-10-25T17:13:37.473Z,991.46
2022-10-25T17:14:37.551Z,991.46
2022-10-25T17:15:37.313Z,991.45
2022-10-25T17:16:37.236Z,991.43
2022-10-25T17:17:37.155Z,991.42
2022-10-25T17:18:37.077Z,991.45
2022-10-25T17:19:36.997Z,991.43
2022-10-25T17:20:36.917Z,991.41
2022-10-25T17:21:36.837Z,991.42
2022-10-25T17:22:36.759Z,991.38
2022-10-25T17:24:36.620Z,991.39
2022-10-25T17:25:36.584Z,991.41
2022-10-25T17:26:36.441Z,991.37
2022-10-25T17:27:36.363Z,991.38
2022-10-25T17:28:40.051Z,991.37
2022-10-25T17:29:36.205Z,991.38
2022-10-25T17:30:36.130Z,991.35
2022-10-25T17:31:36.056Z,991.33
2022-10-25T17:32:36.065Z,991.31
2022-10-25T17:33:36.035Z,991.34
2022-10-25T17:34:35.806Z,991.32
2022-10-25T17:35:35.727Z,991.28
2022-10-25T17:36:35.799Z,991.33
2022-10-25T17:37:35.569Z,991.28
2022-10-25T17:38:35.490Z,991.29
2022-10-25T17:39:35.412Z,991.33
2022-10-25T17:40:35.349Z,991.30
2022-10-25T17:41:35.252Z,991.27
2022-10-25T17:42:35.172Z,991.27
2022-10-25T17:43:35.093Z,991.28
2022-10-25T17:44:35.012Z,991.26
2022-10-25T17:45:34.932Z,991.23
2022-10-25T17:46:34.911Z,991.22
2022-10-25T17:47:34.778Z,991.20
2022-10-25T17:48:34.696Z,991.21
2022-10-25T17:49:34.615Z,991.18
2022-10-25T17:50:34.535Z,991.19
2022-10-25T17:51:34.458Z,991.20
2022-10-25T17:52:34.379Z,991.18
2022-10-25T17:53:34.298Z,991.21
2022-10-25T17:54:34.218Z,991.21
2022-10-25T17:55:34.756Z,991.18
2022-10-25T17:56:34.084Z,991.18
2022-10-25T17:57:33.981Z,991.19
2022-10-25T17:58:33.899Z,991.19
2022-10-25T17:59:33.855Z,991.18
2022-10-25T18:00:33.741Z,991.24
2022-10-25T18:02:33.775Z,991.21
2022-10-25T18:03:33.502Z,991.20
2022-10-25T18:04:51.767Z,991.20
2022-10-25T18:05:33.549Z,991.15
2022-10-25T18:06:33.465Z,991.18
2022-10-25T18:07:34.983Z,991.15
2022-10-25T18:08:33.140Z,991.15
2022-10-25T18:09:33.025Z,991.13
2022-10-25T18:10:32.949Z,991.14
2022-10-25T18:11:32.867Z,991.13
2022-10-25T18:12:32.821Z,991.11
2022-10-25T18:13:32.707Z,991.10
2022-10-25T18:14:32.629Z,991.13
2022-10-25T18:15:32.582Z,991.13
2022-10-25T18:16:32.506Z,991.10
2022-10-25T18:17:32.630Z,991.11
2022-10-25T18:18:32.346Z,991.13
2022-10-25T18:19:32.465Z,991.12
2022-10-25T18:20:32.488Z,991.13
2022-10-25T18:21:32.305Z,991.13
2022-10-25T18:22:32.738Z,991.10
2022-10-25T18:23:32.112Z,991.12
2022-10-25T18:24:31.833Z,991.12
2022-10-25T18:25:31.752Z,991.10
2022-10-25T18:26:31.672Z,991.09
2022-10-25T18:27:31.596Z,991.08
2022-10-25T18:28:31.534Z,991.06
2022-10-25T18:29:31.434Z,991.08
2022-10-25T18:30:31.354Z,991.10
2022-10-25T18:31:31.278Z,991.08
2022-10-25T18:32:35.217Z,991.07
2022-10-25T18:33:31.114Z,991.08
2022-10-25T18:34:31.035Z,991.07
2022-10-25T18:35:31.022Z,991.11
2022-10-25T18:36:30.876Z,991.09
2022-10-25T18:37:30.796Z,991.09
2022-10-25T18:38:30.723Z,991.11
2022-10-25T18:39:30.636Z,991.13
2022-10-25T18:40:30.559Z,991.12
2022-10-25T18:41:30.575Z,991.16
2022-10-25T18:42:30.397Z,991.13
2022-10-25T18:43:30.317Z,991.10
2022-10-25T18:44:30.257Z,991.18
2022-10-25T18:45:30.181Z,991.17
2022-10-25T18:46:30.077Z,991.14
2022-10-25T18:47:29.999Z,991.13
2022-10-25T18:48:29.920Z,991.13
2022-10-25T18:49:29.837Z,991.12
2022-10-25T18:50:29.759Z,991.11
2022-10-25T18:51:29.699Z,991.17
2022-10-25T18:52:29.599Z,991.13
2022-10-25T18:53:29.516Z,991.13
2022-10-25T18:54:29.438Z,991.16
2022-10-25T18:55:29.390Z,991.12
2022-10-25T18:56:29.299Z,991.14
2022-10-25T18:57:29.270Z,991.11
2022-10-25T18:58:29.344Z,991.10
2022-10-25T18:59:29.059Z,991.09
2022-10-25T19:00:29.001Z,991.09
2022-10-25T19:01:29.043Z,991.05
2022-10-25T19:02:29.101Z,991.07
2022-10-25T19:15:55.065Z,991.02
2022-10-25T19:16:54.962Z,991.05
2022-10-25T19:17:54.883Z,991.04
2022-10-25T19:18:54.816Z,991.09
2022-10-25T19:19:54.727Z,991.08
2022-10-25T19:20:54.646Z,991.07
2022-10-25T19:21:54.567Z,991.07
2022-10-25T19:22:54.484Z,991.06
2022-10-25T19:23:54.403Z,991.08
2022-10-25T19:24:54.439Z,991.11
2022-10-25T19:25:54.245Z,991.07
2022-10-25T19:26:54.160Z,991.08
2022-10-25T19:27:54.083Z,991.06
2022-10-25T19:28:54.003Z,991.06
2022-10-25T19:29:53.921Z,991.06
2022-10-25T19:30:53.839Z,991.02
2022-10-25T19:31:53.782Z,991.04
2022-10-25T19:32:53.679Z,991.04
2022-10-25T19:33:53.603Z,991.01
2022-10-25T19:34:53.524Z,991.03
2022-10-25T19:35:53.440Z,991.06
2022-10-25T19:36:53.358Z,991.00
2022-10-25T19:37:53.278Z,991.01
2022-10-25T19:38:53.218Z,991.01
2022-10-25T19:39:55.583Z,990.98
2022-10-25T19:40:53.113Z,991.00
2022-10-25T19:41:52.979Z,991.01
2022-10-25T19:42:52.880Z,991.01
2022-10-25T19:43:52.799Z,990.98
2022-10-25T19:44:52.781Z,991.01
2022-10-25T19:45:52.641Z,991.02
2022-10-25T19:46:52.556Z,991.01
2022-10-25T19:47:52.497Z,991.01
2022-10-25T19:48:52.399Z,991.00
2022-10-25T19:49:52.319Z,990.99
2022-10-25T19:50:52.235Z,990.99
2022-10-25T19:51:52.157Z,991.01
2022-10-25T19:52:52.078Z,990.97
2022-10-25T19:53:51.997Z,990.98
2022-10-25T19:54:52.010Z,990.95
2022-10-25T19:55:51.836Z,990.92
2022-10-25T19:56:51.756Z,990.92
2022-10-25T19:57:52.485Z,990.95
2022-10-25T19:58:51.593Z,990.92
2022-10-25T19:59:51.515Z,990.92
2022-10-25T20:00:51.457Z,990.93
2022-10-25T20:01:51.564Z,990.94
2022-10-25T20:02:51.270Z,990.92
2022-10-25T20:03:51.265Z,990.89
2022-10-25T20:04:51.111Z,990.92
2022-10-25T20:05:51.032Z,990.91
2022-10-25T20:06:50.950Z,990.90
2022-10-25T20:07:51.315Z,990.89
2022-10-25T20:08:50.790Z,990.89
2022-10-25T20:09:50.713Z,990.93
2022-10-25T20:10:50.630Z,990.91
2022-10-25T20:11:50.549Z,990.89
2022-10-25T20:12:50.675Z,990.92
2022-10-25T20:13:50.390Z,990.90
2022-10-25T20:14:50.359Z,990.84
2022-10-25T20:15:50.245Z,990.89
2022-10-25T20:16:50.150Z,990.89
2022-10-25T20:17:50.539Z,990.87
2022-10-25T20:18:49.984Z,990.89
2022-10-25T20:19:49.928Z,990.89
2022-10-25T20:20:53.062Z,990.90
2022-10-25T20:21:49.748Z,990.93
2022-10-25T20:22:49.663Z,990.87
2022-10-25T20:23:49.586Z,990.87
2022-10-25T20:24:49.504Z,990.85
2022-10-25T20:25:49.427Z,990.84
2022-10-25T20:26:49.361Z,990.86
2022-10-25T20:27:49.679Z,990.83
2022-10-25T20:28:49.184Z,990.83
2022-10-25T20:29:49.110Z,990.80
2022-10-25T20:30:49.020Z,990.79
2022-10-25T20:31:48.966Z,990.80
2022-10-25T20:32:48.861Z,990.80
2022-10-25T20:33:48.784Z,990.81
2022-10-25T20:34:48.698Z,990.83
2022-10-25T20:35:48.639Z,990.81
2022-10-25T20:36:48.545Z,990.82
2022-10-25T20:37:48.843Z,990.79
2022-10-25T20:38:48.374Z,990.77
2022-10-25T20:39:48.295Z,990.79
2022-10-25T20:40:48.218Z,990.76
2022-10-25T20:41:48.135Z,990.80
2022-10-25T20:42:48.056Z,990.77
2022-10-25T20:43:48.011Z,990.74
2022-10-25T20:44:47.995Z,990.74
2022-10-25T20:45:47.819Z,990.70
2022-10-25T20:46:47.734Z,990.69
2022-10-25T20:47:47.999Z,990.73
2022-10-25T20:48:47.571Z,990.71
2022-10-25T20:49:47.491Z,990.67
2022-10-25T20:50:47.411Z,990.70
2022-10-25T20:51:47.352Z,990.72
2022-10-25T20:52:58.588Z,990.67
2022-10-25T20:53:47.171Z,990.72
2022-10-25T20:54:47.130Z,990.72
2022-10-25T20:55:47.018Z,990.71
2022-10-25T20:56:46.929Z,990.70
2022-10-25T20:57:47.269Z,990.70
2022-10-25T20:58:46.766Z,990.73
2022-10-25T20:59:46.739Z,990.67
2022-10-25T21:00:46.608Z,990.72
2022-10-25T21:01:46.652Z,990.68
2022-10-25T21:02:46.447Z,990.68
2022-10-25T21:03:46.368Z,990.72
2022-10-25T21:04:54.050Z,990.67
2022-10-25T21:05:46.206Z,990.70
2022-10-25T21:06:46.125Z,990.67
2022-10-25T21:07:46.434Z,990.64
2022-10-25T21:08:45.964Z,990.65
2022-10-25T21:09:49.374Z,990.63
2022-10-25T21:10:45.801Z,990.61
2022-10-25T21:11:48.747Z,990.58
2022-10-25T21:12:45.642Z,990.60
2022-10-25T21:13:45.564Z,990.59
2022-10-25T21:14:45.483Z,990.59
2022-10-25T21:15:46.009Z,990.55
2022-10-25T21:16:45.332Z,990.51
2022-10-25T21:17:45.445Z,990.53
2022-10-25T21:18:45.162Z,990.54
2022-10-25T21:19:45.083Z,990.52
2022-10-25T21:20:45.000Z,990.51
2022-10-25T21:21:44.922Z,990.53
2022-10-25T21:22:47.461Z,990.54
2022-10-25T21:23:44.779Z,990.48
2022-10-25T21:24:44.681Z,990.49
2022-10-25T21:25:44.601Z,990.47
2022-10-25T21:26:44.520Z,990.41
2022-10-25T21:27:44.442Z,990.43
2022-10-25T21:28:44.360Z,990.45
2022-10-25T21:29:44.280Z,990.46
2022-10-25T21:33:51.103Z,990.42
2022-10-25T21:34:49.777Z,990.40
2022-10-25T21:35:49.696Z,990.38
2022-10-25T21:38:54.618Z,990.36
2022-10-25T21:39:54.520Z,990.32
2022-10-25T21:40:54.442Z,990.31
2022-10-25T21:41:54.358Z,990.28
2022-10-25T21:42:54.278Z,990.28
2022-10-25T21:43:54.436Z,990.27
2022-10-25T21:44:54.120Z,990.27
2022-10-25T21:45:54.036Z,990.29
2022-10-25T21:46:53.959Z,990.30
2022-10-25T21:47:53.878Z,990.30
2022-10-25T21:48:53.798Z,990.34
2022-10-25T21:49:53.718Z,990.32
2022-10-25T21:50:53.637Z,990.33
2022-10-25T21:51:53.556Z,990.35
2022-10-25T21:52:53.477Z,990.36
2022-10-25T21:53:53.427Z,990.33
2022-10-25T21:54:53.343Z,990.36
2022-10-25T21:55:53.238Z,990.36
2022-10-25T21:56:53.158Z,990.37
2022-10-25T21:57:54.482Z,990.32
2022-10-25T21:58:52.998Z,990.34
2022-10-25T21:59:52.919Z,990.38
2022-10-25T22:00:52.840Z,990.38
2022-10-25T22:01:52.869Z,990.35
2022-10-25T22:02:52.684Z,990.31
2022-10-25T22:03:52.599Z,990.34
2022-10-25T22:04:52.519Z,990.36
2022-10-25T22:05:52.439Z,990.31
2022-10-25T22:06:52.365Z,990.31
2022-10-25T22:07:52.280Z,990.33
2022-10-25T22:08:52.204Z,990.29
2022-10-25T22:09:52.122Z,990.29
2022-10-25T22:10:52.122Z,990.28
2022-10-25T22:11:51.961Z,990.28
2022-10-25T22:12:51.942Z,990.24
2022-10-25T22:13:51.802Z,990.27
2022-10-25T22:14:51.724Z,990.28
2022-10-25T22:15:51.643Z,990.28
2022-10-25T22:16:51.566Z,990.25
2022-10-25T22:17:51.483Z,990.26
2022-10-25T23:07:42.190Z,989.97
2022-10-25T23:08:42.082Z,989.94
2022-10-25T23:09:42.004Z,989.97
2022-10-25T23:10:41.924Z,989.95
2022-10-25T23:11:41.846Z,989.96
2022-10-25T23:12:41.767Z,989.94
2022-10-25T23:13:41.689Z,989.95
2022-10-25T23:14:41.606Z,989.96
2022-10-25T23:15:41.528Z,989.95
2022-10-25T23:16:41.450Z,989.95
2022-10-25T23:17:41.427Z,989.95
2022-10-25T23:18:41.291Z,990.00
2022-10-25T23:19:41.314Z,990.01
2022-10-25T23:20:41.134Z,989.98
2022-10-25T23:21:41.055Z,990.00
2022-10-25T23:22:40.973Z,990.01
2022-10-25T23:23:40.915Z,989.98
2022-10-25T23:24:40.816Z,989.97
2022-10-25T23:25:40.894Z,989.97
2022-10-25T23:26:40.658Z,989.96
2022-10-25T23:27:40.581Z,989.93
2022-10-25T23:28:40.499Z,989.92
2022-10-25T23:44:23.160Z,989.90
2022-10-25T23:45:23.060Z,989.91
2022-10-25T23:46:22.985Z,989.92
2022-10-25T23:47:22.901Z,989.92
2022-10-25T23:48:22.824Z,989.90
2022-10-25T23:49:22.753Z,989.94
2022-10-25T23:50:22.667Z,989.91
2022-10-25T23:51:25.812Z,989.89
2022-10-25T23:52:22.513Z,989.86
2022-10-25T23:53:22.431Z,989.90
2022-10-25T23:54:22.353Z,989.86
2022-10-25T23:55:24.895Z,989.87
2022-10-25T23:56:22.193Z,989.86
2022-10-25T23:57:22.113Z,989.83
2022-10-25T23:58:23.049Z,989.80
2022-10-25T23:59:21.953Z,989.77
